LEAM/LEI METAR and TAF weather

Enter ICAO airport designator
Station Type Date Time Source
LEAM METAR 2022/01/29 01:30 UTC NOAA

LEAM 290130Z AUTO 34010KT CAVOK 11/02 Q1030


Station Type Date Time Source
LEAM Decoded METAR 2022/01/29 01:30 UTC NOAA

Almeria / Aeropuerto, Spain (LEAM) 36-51N 002-23W 21M
Jan 28, 2022 - 08:30 PM EST / 2022.01.29 0130 UTC
Wind: from the NNW (340 degrees) at 12 MPH (10 KT):0
Visibility: greater than 7 mile(s):0
Temperature: 51 F (11 C)
Dew Point: 35 F (2 C)
Relative Humidity: 53%
Pressure (altimeter): 30.42 in. Hg (1030 hPa)
ob: LEAM 290130Z AUTO 34010KT CAVOK 11/02 Q1030
cycle: 1

Station Type Date Time Source
LEAM TAF 2022/01/28 18:27 UTC NOAA

TAF LEAM 281700Z 2818/2918 06020KT 9999 FEW030 TX20/2914Z TN09/2906Z
TEMPO 2818/2821 06015G25KT
BECMG 2819/2821 35009KT
BECMG 2909/2911 06018KT

Example: see airport list